sensor_id;sensor_type;location;lat;lon;timestamp;P1;durP1;ratioP1;P2;durP2;ratioP2
13040;SDS011;6587;42.728;23.288;2023-12-28T00:00:51;138.93;;;60.40;;
13040;SDS011;6587;42.728;23.288;2023-12-28T00:03:19;109.47;;;51.23;;
13040;SDS011;6587;42.728;23.288;2023-12-28T00:05:46;105.03;;;48.80;;
13040;SDS011;6587;42.728;23.288;2023-12-28T00:08:13;73.17;;;37.63;;
13040;SDS011;6587;42.728;23.288;2023-12-28T00:10:40;61.00;;;32.67;;
13040;SDS011;6587;42.728;23.288;2023-12-28T00:13:07;68.90;;;34.07;;
13040;SDS011;6587;42.728;23.288;2023-12-28T00:15:34;67.93;;;38.10;;
13040;SDS011;6587;42.728;23.288;2023-12-28T00:18:01;94.83;;;41.13;;
13040;SDS011;6587;42.728;23.288;2023-12-28T00:20:30;60.10;;;30.23;;
13040;SDS011;6587;42.728;23.288;2023-12-28T00:22:57;76.23;;;36.73;;
13040;SDS011;6587;42.728;23.288;2023-12-28T00:25:24;92.67;;;42.37;;
13040;SDS011;6587;42.728;23.288;2023-12-28T00:27:51;97.63;;;44.77;;
13040;SDS011;6587;42.728;23.288;2023-12-28T00:30:18;95.47;;;42.63;;
13040;SDS011;6587;42.728;23.288;2023-12-28T00:32:45;89.37;;;40.60;;
13040;SDS011;6587;42.728;23.288;2023-12-28T00:35:12;87.80;;;40.87;;
13040;SDS011;6587;42.728;23.288;2023-12-28T00:37:40;85.77;;;40.23;;
13040;SDS011;6587;42.728;23.288;2023-12-28T00:40:07;94.27;;;42.37;;
13040;SDS011;6587;42.728;23.288;2023-12-28T00:42:35;84.60;;;37.00;;
13040;SDS011;6587;42.728;23.288;2023-12-28T00:45:03;84.33;;;37.33;;
13040;SDS011;6587;42.728;23.288;2023-12-28T00:47:31;85.10;;;39.57;;
13040;SDS011;6587;42.728;23.288;2023-12-28T00:49:58;76.60;;;37.00;;
13040;SDS011;6587;42.728;23.288;2023-12-28T00:52:25;91.63;;;38.33;;
13040;SDS011;6587;42.728;23.288;2023-12-28T00:54:53;73.77;;;34.00;;
13040;SDS011;6587;42.728;23.288;2023-12-28T00:57:20;74.97;;;33.57;;
13040;SDS011;6587;42.728;23.288;2023-12-28T00:59:47;72.90;;;33.27;;
13040;SDS011;6587;42.728;23.288;2023-12-28T01:02:14;71.43;;;34.47;;
13040;SDS011;6587;42.728;23.288;2023-12-28T01:04:41;50.63;;;26.83;;
13040;SDS011;6587;42.728;23.288;2023-12-28T01:07:08;41.33;;;22.20;;
13040;SDS011;6587;42.728;23.288;2023-12-28T01:09:35;41.83;;;22.70;;
13040;SDS011;6587;42.728;23.288;2023-12-28T01:12:04;47.10;;;22.73;;
13040;SDS011;6587;42.728;23.288;2023-12-28T01:14:32;35.43;;;20.27;;
13040;SDS011;6587;42.728;23.288;2023-12-28T01:16:59;37.80;;;21.17;;
13040;SDS011;6587;42.728;23.288;2023-12-28T01:19:26;38.30;;;19.80;;
13040;SDS011;6587;42.728;23.288;2023-12-28T01:21:53;40.80;;;20.83;;
13040;SDS011;6587;42.728;23.288;2023-12-28T01:24:19;46.67;;;24.07;;
13040;SDS011;6587;42.728;23.288;2023-12-28T01:26:46;44.90;;;23.83;;
13040;SDS011;6587;42.728;23.288;2023-12-28T01:29:14;46.00;;;24.30;;
13040;SDS011;6587;42.728;23.288;2023-12-28T01:31:41;46.67;;;23.57;;
13040;SDS011;6587;42.728;23.288;2023-12-28T01:34:08;44.73;;;23.47;;
13040;SDS011;6587;42.728;23.288;2023-12-28T01:36:37;44.93;;;25.27;;
13040;SDS011;6587;42.728;23.288;2023-12-28T01:39:08;47.83;;;24.33;;
13040;SDS011;6587;42.728;23.288;2023-12-28T01:41:36;52.37;;;26.07;;
13040;SDS011;6587;42.728;23.288;2023-12-28T01:44:03;53.13;;;25.37;;
13040;SDS011;6587;42.728;23.288;2023-12-28T01:46:31;51.73;;;26.20;;
13040;SDS011;6587;42.728;23.288;2023-12-28T01:48:58;58.23;;;27.03;;
13040;SDS011;6587;42.728;23.288;2023-12-28T01:51:27;73.40;;;31.83;;
13040;SDS011;6587;42.728;23.288;2023-12-28T01:53:54;90.23;;;40.17;;
13040;SDS011;6587;42.728;23.288;2023-12-28T01:56:21;100.17;;;40.17;;
13040;SDS011;6587;42.728;23.288;2023-12-28T01:58:50;109.83;;;39.77;;
13040;SDS011;6587;42.728;23.288;2023-12-28T02:01:19;82.87;;;35.20;;
13040;SDS011;6587;42.728;23.288;2023-12-28T02:03:49;65.07;;;31.20;;
13040;SDS011;6587;42.728;23.288;2023-12-28T02:06:16;80.30;;;35.60;;
13040;SDS011;6587;42.728;23.288;2023-12-28T02:08:44;83.37;;;33.67;;
13040;SDS011;6587;42.728;23.288;2023-12-28T02:11:11;72.40;;;30.70;;
13040;SDS011;6587;42.728;23.288;2023-12-28T02:13:38;52.27;;;27.90;;
13040;SDS011;6587;42.728;23.288;2023-12-28T02:16:06;47.67;;;23.93;;
13040;SDS011;6587;42.728;23.288;2023-12-28T02:18:38;49.00;;;23.83;;
13040;SDS011;6587;42.728;23.288;2023-12-28T02:21:11;39.00;;;22.07;;
13040;SDS011;6587;42.728;23.288;2023-12-28T02:23:39;38.70;;;21.83;;
13040;SDS011;6587;42.728;23.288;2023-12-28T02:26:13;42.43;;;23.70;;
13040;SDS011;6587;42.728;23.288;2023-12-28T02:28:40;38.43;;;23.03;;
13040;SDS011;6587;42.728;23.288;2023-12-28T02:31:07;41.17;;;22.87;;
13040;SDS011;6587;42.728;23.288;2023-12-28T02:33:41;42.83;;;23.53;;
13040;SDS011;6587;42.728;23.288;2023-12-28T02:36:15;43.20;;;24.50;;
13040;SDS011;6587;42.728;23.288;2023-12-28T02:38:45;37.83;;;21.40;;
13040;SDS011;6587;42.728;23.288;2023-12-28T02:41:16;39.20;;;21.00;;
13040;SDS011;6587;42.728;23.288;2023-12-28T02:43:44;39.03;;;20.30;;
13040;SDS011;6587;42.728;23.288;2023-12-28T02:46:13;42.87;;;21.37;;
13040;SDS011;6587;42.728;23.288;2023-12-28T02:48:40;32.13;;;19.10;;
13040;SDS011;6587;42.728;23.288;2023-12-28T02:51:07;32.77;;;18.50;;
13040;SDS011;6587;42.728;23.288;2023-12-28T02:53:34;40.50;;;20.53;;
13040;SDS011;6587;42.728;23.288;2023-12-28T02:56:01;36.70;;;19.87;;
13040;SDS011;6587;42.728;23.288;2023-12-28T02:58:29;37.57;;;22.07;;
13040;SDS011;6587;42.728;23.288;2023-12-28T03:00:56;38.73;;;20.80;;
13040;SDS011;6587;42.728;23.288;2023-12-28T03:03:23;37.33;;;21.13;;
13040;SDS011;6587;42.728;23.288;2023-12-28T03:05:49;33.53;;;20.33;;
13040;SDS011;6587;42.728;23.288;2023-12-28T03:08:16;35.03;;;20.20;;
13040;SDS011;6587;42.728;23.288;2023-12-28T03:10:43;37.53;;;20.70;;
13040;SDS011;6587;42.728;23.288;2023-12-28T03:13:10;40.80;;;19.90;;
13040;SDS011;6587;42.728;23.288;2023-12-28T03:15:39;35.10;;;20.50;;
13040;SDS011;6587;42.728;23.288;2023-12-28T03:18:05;34.80;;;19.23;;
13040;SDS011;6587;42.728;23.288;2023-12-28T03:20:32;34.23;;;18.43;;
13040;SDS011;6587;42.728;23.288;2023-12-28T03:23:01;34.93;;;19.67;;
13040;SDS011;6587;42.728;23.288;2023-12-28T03:25:28;42.97;;;20.50;;
13040;SDS011;6587;42.728;23.288;2023-12-28T03:27:55;37.10;;;19.43;;
13040;SDS011;6587;42.728;23.288;2023-12-28T03:30:22;41.67;;;21.10;;
13040;SDS011;6587;42.728;23.288;2023-12-28T03:32:50;34.87;;;18.97;;
13040;SDS011;6587;42.728;23.288;2023-12-28T03:35:17;38.50;;;19.97;;
13040;SDS011;6587;42.728;23.288;2023-12-28T03:37:44;36.90;;;20.33;;
13040;SDS011;6587;42.728;23.288;2023-12-28T03:40:11;40.47;;;22.73;;
13040;SDS011;6587;42.728;23.288;2023-12-28T03:42:38;38.53;;;19.60;;
13040;SDS011;6587;42.728;23.288;2023-12-28T03:45:06;39.83;;;20.77;;
13040;SDS011;6587;42.728;23.288;2023-12-28T03:47:33;43.43;;;21.87;;
13040;SDS011;6587;42.728;23.288;2023-12-28T03:50:02;43.50;;;21.87;;
13040;SDS011;6587;42.728;23.288;2023-12-28T03:52:29;52.43;;;21.40;;
13040;SDS011;6587;42.728;23.288;2023-12-28T03:54:56;35.90;;;20.20;;
13040;SDS011;6587;42.728;23.288;2023-12-28T03:57:23;40.60;;;20.30;;
13040;SDS011;6587;42.728;23.288;2023-12-28T03:59:51;46.83;;;21.10;;
13040;SDS011;6587;42.728;23.288;2023-12-28T04:02:19;54.60;;;25.33;;
13040;SDS011;6587;42.728;23.288;2023-12-28T04:04:46;72.27;;;29.67;;
13040;SDS011;6587;42.728;23.288;2023-12-28T04:07:14;64.00;;;30.27;;
13040;SDS011;6587;42.728;23.288;2023-12-28T04:09:41;86.07;;;33.03;;
13040;SDS011;6587;42.728;23.288;2023-12-28T04:12:08;63.97;;;29.10;;
13040;SDS011;6587;42.728;23.288;2023-12-28T04:14:35;70.97;;;30.97;;
13040;SDS011;6587;42.728;23.288;2023-12-28T04:17:02;81.87;;;32.57;;
13040;SDS011;6587;42.728;23.288;2023-12-28T04:19:30;71.67;;;31.00;;
13040;SDS011;6587;42.728;23.288;2023-12-28T04:21:59;61.80;;;29.93;;
13040;SDS011;6587;42.728;23.288;2023-12-28T04:24:27;70.07;;;30.73;;
13040;SDS011;6587;42.728;23.288;2023-12-28T04:26:54;62.80;;;31.83;;
13040;SDS011;6587;42.728;23.288;2023-12-28T04:29:21;67.30;;;32.87;;
13040;SDS011;6587;42.728;23.288;2023-12-28T04:31:48;64.17;;;29.83;;
13040;SDS011;6587;42.728;23.288;2023-12-28T04:34:15;64.57;;;31.37;;
13040;SDS011;6587;42.728;23.288;2023-12-28T04:36:42;72.03;;;30.87;;
13040;SDS011;6587;42.728;23.288;2023-12-28T04:39:09;42.93;;;22.23;;
13040;SDS011;6587;42.728;23.288;2023-12-28T04:41:38;37.80;;;21.33;;
13040;SDS011;6587;42.728;23.288;2023-12-28T04:44:05;43.37;;;21.97;;
13040;SDS011;6587;42.728;23.288;2023-12-28T04:46:32;51.80;;;22.60;;
13040;SDS011;6587;42.728;23.288;2023-12-28T04:49:03;46.33;;;23.27;;
13040;SDS011;6587;42.728;23.288;2023-12-28T04:51:30;50.30;;;24.73;;
13040;SDS011;6587;42.728;23.288;2023-12-28T04:53:57;48.50;;;23.53;;
13040;SDS011;6587;42.728;23.288;2023-12-28T04:56:24;47.67;;;24.80;;
13040;SDS011;6587;42.728;23.288;2023-12-28T04:58:52;50.67;;;26.40;;
13040;SDS011;6587;42.728;23.288;2023-12-28T05:01:19;55.30;;;29.27;;
13040;SDS011;6587;42.728;23.288;2023-12-28T05:03:47;54.73;;;27.97;;
13040;SDS011;6587;42.728;23.288;2023-12-28T05:06:14;54.03;;;27.73;;
13040;SDS011;6587;42.728;23.288;2023-12-28T05:08:44;54.27;;;26.97;;
13040;SDS011;6587;42.728;23.288;2023-12-28T05:11:11;59.00;;;27.77;;
13040;SDS011;6587;42.728;23.288;2023-12-28T05:13:38;51.30;;;27.53;;
13040;SDS011;6587;42.728;23.288;2023-12-28T05:16:07;51.47;;;26.40;;
13040;SDS011;6587;42.728;23.288;2023-12-28T05:18:33;48.50;;;24.93;;
13040;SDS011;6587;42.728;23.288;2023-12-28T05:21:00;48.50;;;27.00;;
13040;SDS011;6587;42.728;23.288;2023-12-28T05:23:27;49.13;;;27.10;;
13040;SDS011;6587;42.728;23.288;2023-12-28T05:25:54;49.60;;;25.03;;
13040;SDS011;6587;42.728;23.288;2023-12-28T05:28:21;51.57;;;25.87;;
13040;SDS011;6587;42.728;23.288;2023-12-28T05:30:48;46.97;;;25.90;;
13040;SDS011;6587;42.728;23.288;2023-12-28T05:33:16;58.10;;;28.17;;
13040;SDS011;6587;42.728;23.288;2023-12-28T05:35:43;55.53;;;27.63;;
13040;SDS011;6587;42.728;23.288;2023-12-28T05:38:09;58.30;;;30.13;;
13040;SDS011;6587;42.728;23.288;2023-12-28T05:40:36;56.90;;;28.73;;
13040;SDS011;6587;42.728;23.288;2023-12-28T05:43:03;75.83;;;35.43;;
13040;SDS011;6587;42.728;23.288;2023-12-28T05:45:30;74.07;;;39.53;;
13040;SDS011;6587;42.728;23.288;2023-12-28T05:47:57;111.13;;;49.17;;
13040;SDS011;6587;42.728;23.288;2023-12-28T05:50:25;95.93;;;44.33;;
13040;SDS011;6587;42.728;23.288;2023-12-28T05:52:52;122.27;;;50.27;;
13040;SDS011;6587;42.728;23.288;2023-12-28T05:55:19;152.53;;;59.80;;
13040;SDS011;6587;42.728;23.288;2023-12-28T05:57:45;106.00;;;47.97;;
13040;SDS011;6587;42.728;23.288;2023-12-28T06:00:13;100.73;;;46.77;;
13040;SDS011;6587;42.728;23.288;2023-12-28T06:02:41;73.73;;;36.70;;
13040;SDS011;6587;42.728;23.288;2023-12-28T06:05:08;51.90;;;27.20;;
13040;SDS011;6587;42.728;23.288;2023-12-28T06:07:36;44.00;;;23.03;;
13040;SDS011;6587;42.728;23.288;2023-12-28T06:10:03;56.43;;;23.73;;
13040;SDS011;6587;42.728;23.288;2023-12-28T06:12:31;44.80;;;22.13;;
13040;SDS011;6587;42.728;23.288;2023-12-28T06:14:57;41.33;;;22.77;;
13040;SDS011;6587;42.728;23.288;2023-12-28T06:17:24;49.73;;;26.70;;
13040;SDS011;6587;42.728;23.288;2023-12-28T06:19:51;49.03;;;27.30;;
13040;SDS011;6587;42.728;23.288;2023-12-28T06:22:18;51.23;;;27.00;;
13040;SDS011;6587;42.728;23.288;2023-12-28T06:24:48;45.83;;;24.93;;
13040;SDS011;6587;42.728;23.288;2023-12-28T06:27:14;52.47;;;26.10;;
13040;SDS011;6587;42.728;23.288;2023-12-28T06:29:41;48.73;;;26.83;;
13040;SDS011;6587;42.728;23.288;2023-12-28T06:32:08;46.93;;;25.83;;
13040;SDS011;6587;42.728;23.288;2023-12-28T06:34:35;53.33;;;28.40;;
13040;SDS011;6587;42.728;23.288;2023-12-28T06:37:02;50.23;;;26.60;;
13040;SDS011;6587;42.728;23.288;2023-12-28T06:39:29;51.80;;;27.20;;
13040;SDS011;6587;42.728;23.288;2023-12-28T06:41:57;51.47;;;28.40;;
13040;SDS011;6587;42.728;23.288;2023-12-28T06:44:24;47.27;;;26.43;;
13040;SDS011;6587;42.728;23.288;2023-12-28T06:46:51;56.93;;;30.07;;
13040;SDS011;6587;42.728;23.288;2023-12-28T06:49:18;59.83;;;28.43;;
13040;SDS011;6587;42.728;23.288;2023-12-28T06:51:45;50.20;;;27.53;;
13040;SDS011;6587;42.728;23.288;2023-12-28T06:54:12;56.80;;;28.37;;
13040;SDS011;6587;42.728;23.288;2023-12-28T06:56:40;58.23;;;30.30;;
13040;SDS011;6587;42.728;23.288;2023-12-28T06:59:08;67.97;;;35.03;;
13040;SDS011;6587;42.728;23.288;2023-12-28T07:01:37;60.07;;;31.67;;
13040;SDS011;6587;42.728;23.288;2023-12-28T07:04:04;57.97;;;30.30;;
13040;SDS011;6587;42.728;23.288;2023-12-28T07:06:31;64.37;;;31.27;;
13040;SDS011;6587;42.728;23.288;2023-12-28T07:08:58;68.20;;;32.97;;
13040;SDS011;6587;42.728;23.288;2023-12-28T07:11:25;75.67;;;35.57;;
13040;SDS011;6587;42.728;23.288;2023-12-28T07:13:52;81.77;;;39.73;;
13040;SDS011;6587;42.728;23.288;2023-12-28T07:16:21;64.67;;;33.73;;
13040;SDS011;6587;42.728;23.288;2023-12-28T07:18:47;56.80;;;29.30;;
13040;SDS011;6587;42.728;23.288;2023-12-28T07:21:14;57.60;;;28.90;;
13040;SDS011;6587;42.728;23.288;2023-12-28T07:23:41;57.47;;;28.53;;
13040;SDS011;6587;42.728;23.288;2023-12-28T07:26:14;59.57;;;28.30;;
13040;SDS011;6587;42.728;23.288;2023-12-28T07:28:40;60.37;;;31.20;;
13040;SDS011;6587;42.728;23.288;2023-12-28T07:31:09;62.97;;;33.40;;
13040;SDS011;6587;42.728;23.288;2023-12-28T07:33:38;68.60;;;33.27;;
13040;SDS011;6587;42.728;23.288;2023-12-28T07:36:05;81.23;;;40.00;;
13040;SDS011;6587;42.728;23.288;2023-12-28T07:38:32;103.77;;;41.03;;
13040;SDS011;6587;42.728;23.288;2023-12-28T07:40:58;92.57;;;39.67;;
13040;SDS011;6587;42.728;23.288;2023-12-28T07:43:25;95.00;;;38.60;;
13040;SDS011;6587;42.728;23.288;2023-12-28T07:45:53;82.47;;;37.40;;
13040;SDS011;6587;42.728;23.288;2023-12-28T07:48:20;65.73;;;32.87;;
13040;SDS011;6587;42.728;23.288;2023-12-28T07:50:48;51.60;;;28.50;;
13040;SDS011;6587;42.728;23.288;2023-12-28T07:53:17;50.60;;;26.73;;
13040;SDS011;6587;42.728;23.288;2023-12-28T07:55:44;44.87;;;26.03;;
13040;SDS011;6587;42.728;23.288;2023-12-28T07:58:10;54.03;;;30.03;;
13040;SDS011;6587;42.728;23.288;2023-12-28T08:00:37;66.03;;;35.23;;
13040;SDS011;6587;42.728;23.288;2023-12-28T08:03:04;86.43;;;44.90;;
13040;SDS011;6587;42.728;23.288;2023-12-28T08:05:31;71.27;;;39.50;;
13040;SDS011;6587;42.728;23.288;2023-12-28T08:07:59;70.00;;;36.13;;
13040;SDS011;6587;42.728;23.288;2023-12-28T08:10:26;63.63;;;36.57;;
13040;SDS011;6587;42.728;23.288;2023-12-28T08:12:53;70.60;;;36.87;;
13040;SDS011;6587;42.728;23.288;2023-12-28T08:15:20;58.37;;;33.83;;
13040;SDS011;6587;42.728;23.288;2023-12-28T08:17:47;59.53;;;33.87;;
13040;SDS011;6587;42.728;23.288;2023-12-28T08:20:13;69.07;;;35.13;;
13040;SDS011;6587;42.728;23.288;2023-12-28T08:22:40;66.03;;;35.10;;
13040;SDS011;6587;42.728;23.288;2023-12-28T08:25:09;65.57;;;35.60;;
13040;SDS011;6587;42.728;23.288;2023-12-28T08:27:36;60.57;;;35.07;;
13040;SDS011;6587;42.728;23.288;2023-12-28T08:30:03;62.73;;;34.57;;
13040;SDS011;6587;42.728;23.288;2023-12-28T08:32:30;54.40;;;30.83;;
13040;SDS011;6587;42.728;23.288;2023-12-28T08:34:57;53.47;;;29.70;;
13040;SDS011;6587;42.728;23.288;2023-12-28T08:37:24;52.07;;;29.10;;
13040;SDS011;6587;42.728;23.288;2023-12-28T08:39:51;55.20;;;29.83;;
13040;SDS011;6587;42.728;23.288;2023-12-28T08:42:19;49.37;;;30.03;;
13040;SDS011;6587;42.728;23.288;2023-12-28T08:44:46;51.33;;;29.83;;
13040;SDS011;6587;42.728;23.288;2023-12-28T08:47:13;47.57;;;29.07;;
13040;SDS011;6587;42.728;23.288;2023-12-28T08:49:40;55.83;;;31.13;;
13040;SDS011;6587;42.728;23.288;2023-12-28T08:52:07;56.67;;;31.40;;
13040;SDS011;6587;42.728;23.288;2023-12-28T08:54:35;56.03;;;30.73;;
13040;SDS011;6587;42.728;23.288;2023-12-28T08:57:02;55.20;;;31.17;;
13040;SDS011;6587;42.728;23.288;2023-12-28T08:59:30;52.27;;;29.50;;
13040;SDS011;6587;42.728;23.288;2023-12-28T09:01:58;61.40;;;31.30;;
13040;SDS011;6587;42.728;23.288;2023-12-28T09:04:26;53.17;;;30.13;;
13040;SDS011;6587;42.728;23.288;2023-12-28T09:06:53;57.63;;;29.70;;
13040;SDS011;6587;42.728;23.288;2023-12-28T09:09:21;56.23;;;28.83;;
13040;SDS011;6587;42.728;23.288;2023-12-28T09:11:48;55.87;;;28.93;;
13040;SDS011;6587;42.728;23.288;2023-12-28T09:14:15;53.33;;;29.80;;
13040;SDS011;6587;42.728;23.288;2023-12-28T09:16:44;55.33;;;29.30;;
13040;SDS011;6587;42.728;23.288;2023-12-28T09:19:12;54.97;;;28.53;;
13040;SDS011;6587;42.728;23.288;2023-12-28T09:21:39;68.57;;;34.67;;
13040;SDS011;6587;42.728;23.288;2023-12-28T09:24:07;73.23;;;36.37;;
13040;SDS011;6587;42.728;23.288;2023-12-28T09:26:34;46.80;;;27.07;;
13040;SDS011;6587;42.728;23.288;2023-12-28T09:29:01;50.27;;;25.97;;
13040;SDS011;6587;42.728;23.288;2023-12-28T09:31:28;48.97;;;25.67;;
13040;SDS011;6587;42.728;23.288;2023-12-28T09:33:56;49.37;;;25.97;;
13040;SDS011;6587;42.728;23.288;2023-12-28T09:36:23;40.67;;;24.97;;
13040;SDS011;6587;42.728;23.288;2023-12-28T09:38:49;43.67;;;25.77;;
13040;SDS011;6587;42.728;23.288;2023-12-28T09:41:16;46.90;;;26.63;;
13040;SDS011;6587;42.728;23.288;2023-12-28T09:43:49;52.33;;;26.83;;
13040;SDS011;6587;42.728;23.288;2023-12-28T09:46:20;50.93;;;26.90;;
13040;SDS011;6587;42.728;23.288;2023-12-28T09:48:47;47.90;;;25.97;;
13040;SDS011;6587;42.728;23.288;2023-12-28T09:51:16;47.63;;;26.80;;
13040;SDS011;6587;42.728;23.288;2023-12-28T09:53:43;50.43;;;27.00;;
13040;SDS011;6587;42.728;23.288;2023-12-28T09:56:10;43.33;;;26.93;;
13040;SDS011;6587;42.728;23.288;2023-12-28T09:58:39;47.83;;;26.53;;
13040;SDS011;6587;42.728;23.288;2023-12-28T10:01:06;46.97;;;27.00;;
13040;SDS011;6587;42.728;23.288;2023-12-28T10:03:35;42.27;;;27.20;;
13040;SDS011;6587;42.728;23.288;2023-12-28T10:06:02;45.63;;;26.33;;
13040;SDS011;6587;42.728;23.288;2023-12-28T10:08:31;47.83;;;25.93;;
13040;SDS011;6587;42.728;23.288;2023-12-28T10:10:58;42.77;;;25.83;;
13040;SDS011;6587;42.728;23.288;2023-12-28T10:13:26;46.73;;;27.13;;
13040;SDS011;6587;42.728;23.288;2023-12-28T10:15:56;48.80;;;28.10;;
13040;SDS011;6587;42.728;23.288;2023-12-28T10:18:23;37.87;;;25.83;;
13040;SDS011;6587;42.728;23.288;2023-12-28T10:20:50;41.23;;;25.77;;
13040;SDS011;6587;42.728;23.288;2023-12-28T10:23:17;48.77;;;26.47;;
13040;SDS011;6587;42.728;23.288;2023-12-28T10:25:46;43.57;;;24.90;;
13040;SDS011;6587;42.728;23.288;2023-12-28T10:28:15;38.57;;;24.60;;
13040;SDS011;6587;42.728;23.288;2023-12-28T10:30:44;36.83;;;25.30;;
13040;SDS011;6587;42.728;23.288;2023-12-28T10:33:11;39.10;;;25.30;;
13040;SDS011;6587;42.728;23.288;2023-12-28T10:35:38;43.37;;;23.53;;
13040;SDS011;6587;42.728;23.288;2023-12-28T10:38:05;41.00;;;23.93;;
13040;SDS011;6587;42.728;23.288;2023-12-28T10:40:36;41.50;;;25.07;;
13040;SDS011;6587;42.728;23.288;2023-12-28T10:43:06;37.17;;;23.83;;
13040;SDS011;6587;42.728;23.288;2023-12-28T10:45:37;35.00;;;24.13;;
13040;SDS011;6587;42.728;23.288;2023-12-28T10:48:09;38.60;;;25.13;;
13040;SDS011;6587;42.728;23.288;2023-12-28T10:50:38;40.47;;;25.63;;
13040;SDS011;6587;42.728;23.288;2023-12-28T10:53:09;38.67;;;25.03;;
13040;SDS011;6587;42.728;23.288;2023-12-28T10:55:53;40.57;;;27.40;;
13040;SDS011;6587;42.728;23.288;2023-12-28T10:58:34;49.97;;;28.03;;
13040;SDS011;6587;42.728;23.288;2023-12-28T11:01:09;37.07;;;26.23;;
13040;SDS011;6587;42.728;23.288;2023-12-28T11:03:42;42.07;;;28.20;;
13040;SDS011;6587;42.728;23.288;2023-12-28T11:06:13;43.30;;;26.73;;
13040;SDS011;6587;42.728;23.288;2023-12-28T11:08:43;38.13;;;27.50;;
13040;SDS011;6587;42.728;23.288;2023-12-28T11:11:15;44.20;;;29.67;;
13040;SDS011;6587;42.728;23.288;2023-12-28T11:13:44;46.20;;;30.07;;
13040;SDS011;6587;42.728;23.288;2023-12-28T11:16:12;38.70;;;27.30;;
13040;SDS011;6587;42.728;23.288;2023-12-28T11:18:40;44.97;;;30.77;;
13040;SDS011;6587;42.728;23.288;2023-12-28T11:21:08;39.13;;;29.10;;
13040;SDS011;6587;42.728;23.288;2023-12-28T11:23:34;48.57;;;31.10;;
13040;SDS011;6587;42.728;23.288;2023-12-28T11:26:01;45.60;;;29.63;;
13040;SDS011;6587;42.728;23.288;2023-12-28T11:28:29;44.27;;;29.33;;
13040;SDS011;6587;42.728;23.288;2023-12-28T11:30:57;47.37;;;31.47;;
13040;SDS011;6587;42.728;23.288;2023-12-28T11:33:30;47.77;;;29.87;;
13040;SDS011;6587;42.728;23.288;2023-12-28T11:35:57;38.30;;;29.10;;
13040;SDS011;6587;42.728;23.288;2023-12-28T11:38:24;41.17;;;28.67;;
13040;SDS011;6587;42.728;23.288;2023-12-28T11:40:52;47.43;;;29.30;;
13040;SDS011;6587;42.728;23.288;2023-12-28T11:43:21;39.93;;;28.07;;
13040;SDS011;6587;42.728;23.288;2023-12-28T11:45:49;42.00;;;28.57;;
13040;SDS011;6587;42.728;23.288;2023-12-28T11:48:25;36.63;;;28.57;;
13040;SDS011;6587;42.728;23.288;2023-12-28T11:50:54;45.60;;;30.10;;
13040;SDS011;6587;42.728;23.288;2023-12-28T11:53:23;40.17;;;28.83;;
13040;SDS011;6587;42.728;23.288;2023-12-28T11:55:50;43.83;;;26.53;;
13040;SDS011;6587;42.728;23.288;2023-12-28T11:58:17;34.27;;;25.40;;
13040;SDS011;6587;42.728;23.288;2023-12-28T12:00:44;37.00;;;25.73;;
13040;SDS011;6587;42.728;23.288;2023-12-28T12:03:12;32.20;;;23.63;;
13040;SDS011;6587;42.728;23.288;2023-12-28T12:05:40;33.80;;;23.40;;
13040;SDS011;6587;42.728;23.288;2023-12-28T12:08:08;32.37;;;23.67;;
13040;SDS011;6587;42.728;23.288;2023-12-28T12:10:38;37.43;;;24.40;;
13040;SDS011;6587;42.728;23.288;2023-12-28T12:13:05;30.47;;;22.40;;
13040;SDS011;6587;42.728;23.288;2023-12-28T12:15:32;31.27;;;22.10;;
13040;SDS011;6587;42.728;23.288;2023-12-28T12:18:00;30.77;;;20.57;;
13040;SDS011;6587;42.728;23.288;2023-12-28T12:20:28;31.23;;;21.10;;
13040;SDS011;6587;42.728;23.288;2023-12-28T12:22:58;34.37;;;22.87;;
13040;SDS011;6587;42.728;23.288;2023-12-28T12:25:25;36.40;;;23.47;;
13040;SDS011;6587;42.728;23.288;2023-12-28T12:27:53;36.13;;;25.07;;
13040;SDS011;6587;42.728;23.288;2023-12-28T12:30:20;32.60;;;23.60;;
13040;SDS011;6587;42.728;23.288;2023-12-28T12:32:48;33.73;;;24.90;;
13040;SDS011;6587;42.728;23.288;2023-12-28T12:35:15;33.10;;;23.93;;
13040;SDS011;6587;42.728;23.288;2023-12-28T12:37:46;30.70;;;22.20;;
13040;SDS011;6587;42.728;23.288;2023-12-28T12:40:17;31.17;;;21.40;;
13040;SDS011;6587;42.728;23.288;2023-12-28T12:42:53;29.60;;;20.97;;
13040;SDS011;6587;42.728;23.288;2023-12-28T12:45:20;28.00;;;21.13;;
13040;SDS011;6587;42.728;23.288;2023-12-28T12:47:48;28.70;;;21.77;;
13040;SDS011;6587;42.728;23.288;2023-12-28T12:50:15;29.23;;;21.03;;
13040;SDS011;6587;42.728;23.288;2023-12-28T12:52:42;29.87;;;20.37;;
13040;SDS011;6587;42.728;23.288;2023-12-28T12:55:10;26.60;;;21.13;;
13040;SDS011;6587;42.728;23.288;2023-12-28T12:57:40;28.60;;;19.42;;
13040;SDS011;6587;42.728;23.288;2023-12-28T13:00:08;24.75;;;17.95;;
13040;SDS011;6587;42.728;23.288;2023-12-28T13:02:36;27.30;;;16.88;;
13040;SDS011;6587;42.728;23.288;2023-12-28T13:05:04;27.35;;;17.00;;
13040;SDS011;6587;42.728;23.288;2023-12-28T13:07:31;21.33;;;17.30;;
13040;SDS011;6587;42.728;23.288;2023-12-28T13:09:59;29.85;;;17.95;;
13040;SDS011;6587;42.728;23.288;2023-12-28T13:12:27;31.23;;;24.02;;
13040;SDS011;6587;42.728;23.288;2023-12-28T13:14:55;24.95;;;18.52;;
13040;SDS011;6587;42.728;23.288;2023-12-28T13:17:22;23.63;;;17.23;;
13040;SDS011;6587;42.728;23.288;2023-12-28T13:19:49;26.40;;;17.83;;
13040;SDS011;6587;42.728;23.288;2023-12-28T13:22:16;27.47;;;18.23;;
13040;SDS011;6587;42.728;23.288;2023-12-28T13:24:43;21.97;;;15.53;;
13040;SDS011;6587;42.728;23.288;2023-12-28T13:27:10;24.07;;;16.43;;
13040;SDS011;6587;42.728;23.288;2023-12-28T13:29:39;23.70;;;16.07;;
13040;SDS011;6587;42.728;23.288;2023-12-28T13:32:07;23.03;;;15.87;;
13040;SDS011;6587;42.728;23.288;2023-12-28T13:34:34;25.43;;;16.97;;
13040;SDS011;6587;42.728;23.288;2023-12-28T13:37:01;21.77;;;16.13;;
13040;SDS011;6587;42.728;23.288;2023-12-28T13:39:28;28.45;;;17.33;;
13040;SDS011;6587;42.728;23.288;2023-12-28T13:41:55;24.37;;;16.70;;
13040;SDS011;6587;42.728;23.288;2023-12-28T13:44:22;21.67;;;15.63;;
13040;SDS011;6587;42.728;23.288;2023-12-28T13:46:50;25.80;;;15.95;;
13040;SDS011;6587;42.728;23.288;2023-12-28T13:49:20;23.10;;;17.35;;
13040;SDS011;6587;42.728;23.288;2023-12-28T13:51:47;24.67;;;17.97;;
13040;SDS011;6587;42.728;23.288;2023-12-28T13:54:14;30.87;;;19.00;;
13040;SDS011;6587;42.728;23.288;2023-12-28T13:56:41;26.48;;;17.85;;
13040;SDS011;6587;42.728;23.288;2023-12-28T13:59:10;22.50;;;17.30;;
13040;SDS011;6587;42.728;23.288;2023-12-28T14:01:37;22.95;;;17.15;;
13040;SDS011;6587;42.728;23.288;2023-12-28T14:04:04;24.42;;;16.90;;
13040;SDS011;6587;42.728;23.288;2023-12-28T14:06:32;21.87;;;16.40;;
13040;SDS011;6587;42.728;23.288;2023-12-28T14:08:59;21.50;;;16.15;;
13040;SDS011;6587;42.728;23.288;2023-12-28T14:11:26;26.43;;;16.57;;
13040;SDS011;6587;42.728;23.288;2023-12-28T14:13:53;24.57;;;16.93;;
13040;SDS011;6587;42.728;23.288;2023-12-28T14:16:20;19.77;;;15.07;;
13040;SDS011;6587;42.728;23.288;2023-12-28T14:18:47;22.30;;;15.87;;
13040;SDS011;6587;42.728;23.288;2023-12-28T14:21:14;21.87;;;14.23;;
13040;SDS011;6587;42.728;23.288;2023-12-28T14:23:43;23.97;;;15.40;;